sensor_id;sensor_type;location;lat;lon;timestamp;pressure;altitude;pressure_sealevel;temperature;humidity
3132;BME280;62090;52.330;9.104;2023-05-19T00:01:57;102174.06;;;11.08;69.83
3132;BME280;62090;52.330;9.104;2023-05-19T00:04:32;102131.88;;;10.96;68.83
3132;BME280;62090;52.330;9.104;2023-05-19T00:07:02;102160.91;;;11.18;68.26
3132;BME280;62090;52.330;9.104;2023-05-19T00:09:34;102169.41;;;11.36;67.72
3132;BME280;62090;52.330;9.104;2023-05-19T00:12:08;102170.47;;;11.41;66.38
3132;BME280;62090;52.330;9.104;2023-05-19T00:14:39;102169.25;;;11.33;66.49
3132;BME280;62090;52.330;9.104;2023-05-19T00:17:10;102167.84;;;11.39;66.02
3132;BME280;62090;52.330;9.104;2023-05-19T00:19:40;102160.44;;;11.26;66.69
3132;BME280;62090;52.330;9.104;2023-05-19T00:22:11;102153.78;;;11.11;67.02
3132;BME280;62090;52.330;9.104;2023-05-19T00:24:41;102173.16;;;11.25;66.50
3132;BME280;62090;52.330;9.104;2023-05-19T00:27:13;102146.19;;;11.12;66.25
3132;BME280;62090;52.330;9.104;2023-05-19T00:29:43;102161.06;;;11.21;66.48
3132;BME280;62090;52.330;9.104;2023-05-19T00:32:13;102162.59;;;11.17;66.57
3132;BME280;62090;52.330;9.104;2023-05-19T00:34:43;102162.47;;;11.14;66.73
3132;BME280;62090;52.330;9.104;2023-05-19T00:37:14;102122.97;;;10.87;66.79
3132;BME280;62090;52.330;9.104;2023-05-19T00:39:44;102153.66;;;11.08;66.92
3132;BME280;62090;52.330;9.104;2023-05-19T00:42:16;102146.97;;;11.10;66.84
3132;BME280;62090;52.330;9.104;2023-05-19T00:44:46;102155.69;;;11.15;67.51
3132;BME280;62090;52.330;9.104;2023-05-19T00:47:16;102138.81;;;10.99;67.52
3132;BME280;62090;52.330;9.104;2023-05-19T00:49:46;102151.19;;;11.09;67.40
3132;BME280;62090;52.330;9.104;2023-05-19T00:52:16;102149.63;;;10.93;68.56
3132;BME280;62090;52.330;9.104;2023-05-19T00:54:46;102155.72;;;10.97;68.21
3132;BME280;62090;52.330;9.104;2023-05-19T00:57:20;102131.72;;;10.74;68.10
3132;BME280;62090;52.330;9.104;2023-05-19T00:59:50;102157.72;;;10.85;68.62
3132;BME280;62090;52.330;9.104;2023-05-19T01:02:20;102157.78;;;10.86;68.30
3132;BME280;62090;52.330;9.104;2023-05-19T01:04:50;102139.56;;;10.79;68.29
3132;BME280;62090;52.330;9.104;2023-05-19T01:07:21;102131.72;;;10.74;68.67
3132;BME280;62090;52.330;9.104;2023-05-19T01:09:51;102152.69;;;10.86;68.75
3132;BME280;62090;52.330;9.104;2023-05-19T01:12:24;102143.16;;;10.82;68.18
3132;BME280;62090;52.330;9.104;2023-05-19T01:14:56;102156.81;;;10.84;68.40
3132;BME280;62090;52.330;9.104;2023-05-19T01:17:30;102150.81;;;10.82;68.56
3132;BME280;62090;52.330;9.104;2023-05-19T01:20:14;102112.38;;;10.60;68.59
3132;BME280;62090;52.330;9.104;2023-05-19T01:23:11;102136.66;;;10.52;69.03
3132;BME280;62090;52.330;9.104;2023-05-19T01:26:15;102154.03;;;10.61;69.17
3132;BME280;62090;52.330;9.104;2023-05-19T01:29:28;102151.94;;;10.52;68.83
3132;BME280;62090;52.330;9.104;2023-05-19T01:32:06;102152.56;;;10.48;69.46
3132;BME280;62090;52.330;9.104;2023-05-19T01:34:41;102119.09;;;10.23;70.15
3132;BME280;62090;52.330;9.104;2023-05-19T01:37:12;102083.34;;;10.03;70.03
3132;BME280;62090;52.330;9.104;2023-05-19T01:39:45;102135.38;;;10.26;70.65
3132;BME280;62090;52.330;9.104;2023-05-19T01:42:16;102146.44;;;10.27;71.34
3132;BME280;62090;52.330;9.104;2023-05-19T01:44:48;102156.16;;;10.34;71.32
3132;BME280;62090;52.330;9.104;2023-05-19T01:47:21;102114.03;;;10.06;70.96
3132;BME280;62090;52.330;9.104;2023-05-19T01:49:51;102144.72;;;10.26;71.44
3132;BME280;62090;52.330;9.104;2023-05-19T01:52:21;102107.13;;;10.04;71.15
3132;BME280;62090;52.330;9.104;2023-05-19T01:54:51;102149.81;;;10.26;71.00
3132;BME280;62090;52.330;9.104;2023-05-19T01:57:26;102154.47;;;10.34;70.91
3132;BME280;62090;52.330;9.104;2023-05-19T02:00:05;102147.44;;;10.12;71.67
3132;BME280;62090;52.330;9.104;2023-05-19T02:02:54;102158.06;;;10.20;71.71
3132;BME280;62090;52.330;9.104;2023-05-19T02:05:32;102146.31;;;10.24;71.31
3132;BME280;62090;52.330;9.104;2023-05-19T02:08:10;102163.28;;;10.23;71.95
3132;BME280;62090;52.330;9.104;2023-05-19T02:10:44;102155.41;;;10.19;72.51
3132;BME280;62090;52.330;9.104;2023-05-19T02:13:19;102129.97;;;10.02;72.47
3132;BME280;62090;52.330;9.104;2023-05-19T02:15:54;102120.34;;;9.97;71.82
3132;BME280;62090;52.330;9.104;2023-05-19T02:18:32;102133.47;;;10.04;72.03
3132;BME280;62090;52.330;9.104;2023-05-19T02:21:02;102145.25;;;10.02;72.07
3132;BME280;62090;52.330;9.104;2023-05-19T02:23:32;102147.94;;;10.05;72.63
3132;BME280;62090;52.330;9.104;2023-05-19T02:26:02;102131.84;;;10.06;72.56
3132;BME280;62090;52.330;9.104;2023-05-19T02:28:32;102137.34;;;10.14;72.39
3132;BME280;62090;52.330;9.104;2023-05-19T02:31:02;102136.13;;;10.24;72.50
3132;BME280;62090;52.330;9.104;2023-05-19T02:33:37;102114.25;;;10.11;72.63
3132;BME280;62090;52.330;9.104;2023-05-19T02:36:08;102133.72;;;10.27;72.25
3132;BME280;62090;52.330;9.104;2023-05-19T02:38:40;102091.53;;;9.98;72.95
3132;BME280;62090;52.330;9.104;2023-05-19T02:41:10;102131.16;;;10.27;72.57
3132;BME280;62090;52.330;9.104;2023-05-19T02:43:40;102135.38;;;10.26;72.37
3132;BME280;62090;52.330;9.104;2023-05-19T02:46:09;102130.25;;;10.25;72.32
3132;BME280;62090;52.330;9.104;2023-05-19T02:48:42;102127.75;;;10.26;72.31
3132;BME280;62090;52.330;9.104;2023-05-19T02:51:12;102122.09;;;10.15;72.83
3132;BME280;62090;52.330;9.104;2023-05-19T02:53:42;102122.47;;;10.05;73.75
3132;BME280;62090;52.330;9.104;2023-05-19T02:56:12;102111.47;;;10.06;72.87
3132;BME280;62090;52.330;9.104;2023-05-19T02:58:42;102081.34;;;9.80;73.17
3132;BME280;62090;52.330;9.104;2023-05-19T03:01:11;102102.00;;;9.86;73.50
3132;BME280;62090;52.330;9.104;2023-05-19T03:03:45;102113.19;;;9.90;73.94
3132;BME280;62090;52.330;9.104;2023-05-19T03:06:15;102123.56;;;9.93;73.24
3132;BME280;62090;52.330;9.104;2023-05-19T03:08:45;102097.75;;;9.69;73.12
3132;BME280;62090;52.330;9.104;2023-05-19T03:11:14;102060.69;;;9.40;74.61
3132;BME280;62090;52.330;9.104;2023-05-19T03:13:44;102118.94;;;9.86;74.00
3132;BME280;62090;52.330;9.104;2023-05-19T03:16:14;102122.69;;;9.92;73.77
3132;BME280;62090;52.330;9.104;2023-05-19T03:18:47;102117.41;;;9.89;73.65
3132;BME280;62090;52.330;9.104;2023-05-19T03:21:18;102073.13;;;9.52;74.67
3132;BME280;62090;52.330;9.104;2023-05-19T03:23:48;102119.91;;;9.88;74.77
3132;BME280;62090;52.330;9.104;2023-05-19T03:26:17;102120.78;;;9.88;74.69
3132;BME280;62090;52.330;9.104;2023-05-19T03:28:49;102118.47;;;9.93;74.29
3132;BME280;62090;52.330;9.104;2023-05-19T03:31:18;102117.38;;;10.05;75.03
3132;BME280;62090;52.330;9.104;2023-05-19T03:33:51;102124.66;;;10.15;73.83
3132;BME280;62090;52.330;9.104;2023-05-19T03:36:21;102122.06;;;10.14;73.89
3132;BME280;62090;52.330;9.104;2023-05-19T03:38:52;102120.38;;;10.14;73.91
3132;BME280;62090;52.330;9.104;2023-05-19T03:41:22;102111.47;;;10.06;73.92
3132;BME280;62090;52.330;9.104;2023-05-19T03:43:52;102132.88;;;10.10;74.39
3132;BME280;62090;52.330;9.104;2023-05-19T03:46:22;102126.97;;;9.93;75.48
3132;BME280;62090;52.330;9.104;2023-05-19T03:49:09;102128.69;;;9.94;75.68
3132;BME280;62090;52.330;9.104;2023-05-19T03:51:59;102118.88;;;9.84;75.87
3132;BME280;62090;52.330;9.104;2023-05-19T03:54:52;102135.19;;;9.88;76.03
3132;BME280;62090;52.330;9.104;2023-05-19T03:57:23;102132.22;;;9.96;75.71
3132;BME280;62090;52.330;9.104;2023-05-19T03:59:53;102113.41;;;9.94;75.29
3132;BME280;62090;52.330;9.104;2023-05-19T04:02:23;102118.19;;;10.04;74.66
3132;BME280;62090;52.330;9.104;2023-05-19T04:04:55;102132.94;;;10.11;74.26
3132;BME280;62090;52.330;9.104;2023-05-19T04:07:25;102111.75;;;9.95;74.69
3132;BME280;62090;52.330;9.104;2023-05-19T04:09:55;102123.88;;;9.99;74.15
3132;BME280;62090;52.330;9.104;2023-05-19T04:12:27;102135.50;;;10.11;74.24
3132;BME280;62090;52.330;9.104;2023-05-19T04:14:57;102121.59;;;10.05;73.71
3132;BME280;62090;52.330;9.104;2023-05-19T04:17:27;102121.38;;;10.00;74.07
3132;BME280;62090;52.330;9.104;2023-05-19T04:20:00;102138.28;;;10.16;74.26
3132;BME280;62090;52.330;9.104;2023-05-19T04:22:30;102144.00;;;10.12;74.21
3132;BME280;62090;52.330;9.104;2023-05-19T04:25:00;102148.97;;;10.09;74.21
3132;BME280;62090;52.330;9.104;2023-05-19T04:27:30;102133.31;;;10.01;74.63
3132;BME280;62090;52.330;9.104;2023-05-19T04:30:03;102116.50;;;10.05;73.97
3132;BME280;62090;52.330;9.104;2023-05-19T04:32:33;102146.09;;;10.19;74.15
3132;BME280;62090;52.330;9.104;2023-05-19T04:35:07;102065.34;;;9.83;73.57
3132;BME280;62090;52.330;9.104;2023-05-19T04:37:39;102127.47;;;10.20;73.90
3132;BME280;62090;52.330;9.104;2023-05-19T04:40:13;102114.97;;;10.08;74.46
3132;BME280;62090;52.330;9.104;2023-05-19T04:42:43;102141.53;;;10.30;74.08
3132;BME280;62090;52.330;9.104;2023-05-19T04:45:16;102140.06;;;10.35;74.53
3132;BME280;62090;52.330;9.104;2023-05-19T04:47:49;102114.97;;;10.25;74.28
3132;BME280;62090;52.330;9.104;2023-05-19T04:50:27;102129.84;;;10.52;74.08
3132;BME280;62090;52.330;9.104;2023-05-19T04:52:59;102146.19;;;10.56;74.77
3132;BME280;62090;52.330;9.104;2023-05-19T04:55:29;102131.56;;;10.52;74.60
3132;BME280;62090;52.330;9.104;2023-05-19T04:58:00;102140.53;;;10.63;74.29
3132;BME280;62090;52.330;9.104;2023-05-19T05:00:30;102145.41;;;10.76;74.76
3132;BME280;62090;52.330;9.104;2023-05-19T05:03:05;102146.63;;;10.84;74.53
3132;BME280;62090;52.330;9.104;2023-05-19T05:05:37;102124.50;;;10.83;73.75
3132;BME280;62090;52.330;9.104;2023-05-19T05:08:09;102110.69;;;10.78;73.77
3132;BME280;62090;52.330;9.104;2023-05-19T05:10:42;102125.50;;;10.87;72.88
3132;BME280;62090;52.330;9.104;2023-05-19T05:13:12;102141.69;;;11.07;73.16
3132;BME280;62090;52.330;9.104;2023-05-19T05:15:43;102126.13;;;11.00;73.10
3132;BME280;62090;52.330;9.104;2023-05-19T05:18:14;102136.78;;;11.11;73.50
3132;BME280;62090;52.330;9.104;2023-05-19T05:20:47;102134.69;;;11.20;72.83
3132;BME280;62090;52.330;9.104;2023-05-19T05:23:18;102125.75;;;11.30;73.02
3132;BME280;62090;52.330;9.104;2023-05-19T05:25:50;102134.72;;;11.41;73.23
3132;BME280;62090;52.330;9.104;2023-05-19T05:28:21;102146.13;;;11.49;72.68
3132;BME280;62090;52.330;9.104;2023-05-19T05:30:52;102142.03;;;11.53;72.33
3132;BME280;62090;52.330;9.104;2023-05-19T05:33:23;102129.97;;;11.29;72.99
3132;BME280;62090;52.330;9.104;2023-05-19T05:35:56;102085.13;;;11.15;73.62
3132;BME280;62090;52.330;9.104;2023-05-19T05:38:27;102102.88;;;11.33;73.30
3132;BME280;62090;52.330;9.104;2023-05-19T05:40:58;102137.53;;;11.66;73.76
3132;BME280;62090;52.330;9.104;2023-05-19T05:43:29;102120.38;;;11.64;73.54
3132;BME280;62090;52.330;9.104;2023-05-19T05:46:02;102129.19;;;11.90;73.65
3132;BME280;62090;52.330;9.104;2023-05-19T05:48:33;102126.47;;;11.87;74.34
3132;BME280;62090;52.330;9.104;2023-05-19T05:51:07;102138.19;;;12.23;74.18
3132;BME280;62090;52.330;9.104;2023-05-19T05:53:40;102104.16;;;12.24;73.19
3132;BME280;62090;52.330;9.104;2023-05-19T05:56:13;102127.94;;;12.44;72.23
3132;BME280;62090;52.330;9.104;2023-05-19T05:58:48;102135.22;;;12.78;71.54
3132;BME280;62090;52.330;9.104;2023-05-19T06:01:20;102095.47;;;12.63;71.20
3132;BME280;62090;52.330;9.104;2023-05-19T06:03:51;102139.34;;;13.19;71.50
3132;BME280;62090;52.330;9.104;2023-05-19T06:06:25;102133.78;;;13.30;70.44
3132;BME280;62090;52.330;9.104;2023-05-19T06:08:55;102115.44;;;13.43;70.22
3132;BME280;62090;52.330;9.104;2023-05-19T06:11:26;102133.81;;;13.81;69.27
3132;BME280;62090;52.330;9.104;2023-05-19T06:13:58;102125.69;;;13.67;68.78
3132;BME280;62090;52.330;9.104;2023-05-19T06:16:46;102063.91;;;13.58;68.70
3132;BME280;62090;52.330;9.104;2023-05-19T06:19:17;102121.19;;;14.12;67.69
3132;BME280;62090;52.330;9.104;2023-05-19T06:21:50;102119.66;;;14.44;66.84
3132;BME280;62090;52.330;9.104;2023-05-19T06:24:20;102131.19;;;14.57;66.27
3132;BME280;62090;52.330;9.104;2023-05-19T06:26:50;102116.88;;;14.36;66.08
3132;BME280;62090;52.330;9.104;2023-05-19T06:29:19;102138.06;;;14.58;66.19
3132;BME280;62090;52.330;9.104;2023-05-19T06:31:51;102120.63;;;14.76;66.29
3132;BME280;62090;52.330;9.104;2023-05-19T06:34:22;102124.88;;;14.74;65.80
3132;BME280;62090;52.330;9.104;2023-05-19T06:36:55;102131.94;;;14.54;66.43
3132;BME280;62090;52.330;9.104;2023-05-19T06:39:25;102120.03;;;14.56;66.08
3132;BME280;62090;52.330;9.104;2023-05-19T06:41:56;102125.94;;;14.82;65.52
3132;BME280;62090;52.330;9.104;2023-05-19T06:44:45;102124.69;;;14.98;65.11
3132;BME280;62090;52.330;9.104;2023-05-19T06:47:15;102101.63;;;14.99;64.90
3132;BME280;62090;52.330;9.104;2023-05-19T06:49:46;102126.25;;;15.23;64.17
3132;BME280;62090;52.330;9.104;2023-05-19T06:52:27;102125.00;;;15.40;63.71
3132;BME280;62090;52.330;9.104;2023-05-19T06:54:58;102130.56;;;15.55;64.01
3132;BME280;62090;52.330;9.104;2023-05-19T06:57:29;102138.13;;;15.50;63.79
3132;BME280;62090;52.330;9.104;2023-05-19T07:00:00;102123.53;;;15.18;64.01
3132;BME280;62090;52.330;9.104;2023-05-19T07:02:31;102130.59;;;15.25;65.03
3132;BME280;62090;52.330;9.104;2023-05-19T07:05:03;102104.22;;;15.31;65.14
3132;BME280;62090;52.330;9.104;2023-05-19T07:07:37;102110.28;;;15.34;63.54
3132;BME280;62090;52.330;9.104;2023-05-19T07:10:11;102116.56;;;15.44;64.20
3132;BME280;62090;52.330;9.104;2023-05-19T07:12:42;102104.44;;;15.40;64.43
3132;BME280;62090;52.330;9.104;2023-05-19T07:15:16;102110.16;;;15.30;64.59
3132;BME280;62090;52.330;9.104;2023-05-19T07:17:46;102124.50;;;15.51;64.84
3132;BME280;62090;52.330;9.104;2023-05-19T07:20:17;102115.44;;;15.66;64.11
3132;BME280;62090;52.330;9.104;2023-05-19T07:22:49;102117.13;;;15.65;63.62
3132;BME280;62090;52.330;9.104;2023-05-19T07:25:19;102121.56;;;15.71;63.65
3132;BME280;62090;52.330;9.104;2023-05-19T07:27:49;102118.81;;;15.63;63.62
3132;BME280;62090;52.330;9.104;2023-05-19T07:30:19;102118.88;;;15.66;63.40
3132;BME280;62090;52.330;9.104;2023-05-19T07:32:49;102096.44;;;15.93;62.21
3132;BME280;62090;52.330;9.104;2023-05-19T07:35:19;102118.34;;;16.51;62.20
3132;BME280;62090;52.330;9.104;2023-05-19T07:37:53;102116.41;;;16.78;59.95
3132;BME280;62090;52.330;9.104;2023-05-19T07:40:22;102114.22;;;16.58;60.82
3132;BME280;62090;52.330;9.104;2023-05-19T07:42:52;102102.53;;;16.70;60.11
3132;BME280;62090;52.330;9.104;2023-05-19T07:45:22;102104.44;;;16.80;61.04
3132;BME280;62090;52.330;9.104;2023-05-19T07:47:52;102097.16;;;17.02;59.32
3132;BME280;62090;52.330;9.104;2023-05-19T07:50:22;102096.03;;;16.89;59.14
3132;BME280;62090;52.330;9.104;2023-05-19T07:52:55;102098.03;;;17.04;59.33
3132;BME280;62090;52.330;9.104;2023-05-19T07:55:25;102091.75;;;17.33;59.11
3132;BME280;62090;52.330;9.104;2023-05-19T07:57:55;102093.69;;;17.45;58.92
3132;BME280;62090;52.330;9.104;2023-05-19T08:00:25;102035.88;;;17.32;58.77
3132;BME280;62090;52.330;9.104;2023-05-19T08:02:55;102083.91;;;17.77;57.62
3132;BME280;62090;52.330;9.104;2023-05-19T08:05:25;102102.72;;;17.69;57.78
3132;BME280;62090;52.330;9.104;2023-05-19T08:07:58;102091.50;;;17.67;56.59
3132;BME280;62090;52.330;9.104;2023-05-19T08:10:28;102035.31;;;17.48;58.24
3132;BME280;62090;52.330;9.104;2023-05-19T08:12:58;102078.88;;;17.83;57.36
3132;BME280;62090;52.330;9.104;2023-05-19T08:15:28;102101.03;;;17.71;56.69
3132;BME280;62090;52.330;9.104;2023-05-19T08:17:58;102096.47;;;18.08;56.80
3132;BME280;62090;52.330;9.104;2023-05-19T08:20:29;102093.97;;;18.14;56.67
3132;BME280;62090;52.330;9.104;2023-05-19T08:23:03;102087.09;;;18.14;57.43
3132;BME280;62090;52.330;9.104;2023-05-19T08:25:33;102090.13;;;18.43;56.86
3132;BME280;62090;52.330;9.104;2023-05-19T08:28:03;102099.00;;;18.61;57.10
3132;BME280;62090;52.330;9.104;2023-05-19T08:30:33;102083.56;;;18.67;56.31
3132;BME280;62090;52.330;9.104;2023-05-19T08:33:02;102096.78;;;18.91;56.53
3132;BME280;62090;52.330;9.104;2023-05-19T08:35:33;102091.31;;;18.68;55.19
3132;BME280;62090;52.330;9.104;2023-05-19T08:38:06;102085.47;;;18.83;55.84
3132;BME280;62090;52.330;9.104;2023-05-19T08:40:40;102068.78;;;18.56;56.31
3132;BME280;62090;52.330;9.104;2023-05-19T08:43:10;102086.03;;;18.58;56.31
3132;BME280;62090;52.330;9.104;2023-05-19T08:45:42;102094.19;;;18.91;55.63
3132;BME280;62090;52.330;9.104;2023-05-19T08:48:16;102079.59;;;18.94;55.67
3132;BME280;62090;52.330;9.104;2023-05-19T08:50:53;102073.44;;;18.83;55.21
3132;BME280;62090;52.330;9.104;2023-05-19T08:53:33;102041.41;;;18.66;55.45
3132;BME280;62090;52.330;9.104;2023-05-19T08:56:10;101992.00;;;18.42;55.49
3132;BME280;62090;52.330;9.104;2023-05-19T08:58:41;102048.22;;;18.61;54.97
3132;BME280;62090;52.330;9.104;2023-05-19T09:01:12;102055.03;;;18.58;55.68
3132;BME280;62090;52.330;9.104;2023-05-19T09:03:43;102059.50;;;18.72;54.59
3132;BME280;62090;52.330;9.104;2023-05-19T09:06:16;102061.19;;;18.69;55.33
3132;BME280;62090;52.330;9.104;2023-05-19T09:08:48;102037.16;;;18.74;55.13
3132;BME280;62090;52.330;9.104;2023-05-19T09:11:18;102066.78;;;19.02;55.71
3132;BME280;62090;52.330;9.104;2023-05-19T09:13:48;102040.81;;;18.91;53.59
3132;BME280;62090;52.330;9.104;2023-05-19T09:16:18;102057.44;;;19.16;53.36
3132;BME280;62090;52.330;9.104;2023-05-19T09:18:53;102034.84;;;18.97;54.37
3132;BME280;62090;52.330;9.104;2023-05-19T09:21:27;102045.88;;;18.81;54.46
3132;BME280;62090;52.330;9.104;2023-05-19T09:24:06;102057.84;;;18.76;54.31
3132;BME280;62090;52.330;9.104;2023-05-19T09:26:37;102046.03;;;18.96;54.63
3132;BME280;62090;52.330;9.104;2023-05-19T09:29:11;102051.34;;;19.11;54.48
3132;BME280;62090;52.330;9.104;2023-05-19T09:31:46;102035.50;;;18.79;54.29
3132;BME280;62090;52.330;9.104;2023-05-19T09:34:18;102047.69;;;18.91;54.98
3132;BME280;62090;52.330;9.104;2023-05-19T09:36:48;102040.00;;;18.95;55.18
3132;BME280;62090;52.330;9.104;2023-05-19T09:39:22;102037.38;;;18.94;54.09
3132;BME280;62090;52.330;9.104;2023-05-19T09:41:53;102033.25;;;19.08;52.48
3132;BME280;62090;52.330;9.104;2023-05-19T09:44:25;102011.69;;;19.06;51.71
3132;BME280;62090;52.330;9.104;2023-05-19T09:46:57;102027.34;;;19.23;52.00
3132;BME280;62090;52.330;9.104;2023-05-19T09:49:28;102034.38;;;19.34;52.96
3132;BME280;62090;52.330;9.104;2023-05-19T09:52:01;101996.28;;;19.17;53.77
3132;BME280;62090;52.330;9.104;2023-05-19T09:54:34;102024.03;;;19.40;51.63
3132;BME280;62090;52.330;9.104;2023-05-19T09:57:04;102005.06;;;19.34;50.06
3132;BME280;62090;52.330;9.104;2023-05-19T09:59:35;101996.44;;;19.33;50.30
3132;BME280;62090;52.330;9.104;2023-05-19T10:02:10;102015.56;;;19.51;50.52
3132;BME280;62090;52.330;9.104;2023-05-19T10:04:43;102002.63;;;19.52;50.21
3132;BME280;62090;52.330;9.104;2023-05-19T10:07:15;101962.88;;;19.42;50.06
3132;BME280;62090;52.330;9.104;2023-05-19T10:09:49;102005.50;;;19.90;49.07
3132;BME280;62090;52.330;9.104;2023-05-19T10:12:20;102006.22;;;19.72;47.75
3132;BME280;62090;52.330;9.104;2023-05-19T10:14:51;101977.00;;;19.83;47.71
3132;BME280;62090;52.330;9.104;2023-05-19T10:17:24;101990.84;;;19.91;46.85
3132;BME280;62090;52.330;9.104;2023-05-19T10:19:54;102008.03;;;19.84;47.81
3132;BME280;62090;52.330;9.104;2023-05-19T10:22:24;102002.84;;;19.81;47.95
3132;BME280;62090;52.330;9.104;2023-05-19T10:24:56;102005.59;;;20.04;48.31
3132;BME280;62090;52.330;9.104;2023-05-19T10:27:27;101961.56;;;19.96;46.14
3132;BME280;62090;52.330;9.104;2023-05-19T10:30:03;101999.56;;;20.11;46.04
3132;BME280;62090;52.330;9.104;2023-05-19T10:32:38;101996.69;;;19.62;46.10
3132;BME280;62090;52.330;9.104;2023-05-19T10:35:31;102004.22;;;19.41;47.14
3132;BME280;62090;52.330;9.104;2023-05-19T10:38:11;101979.19;;;19.32;46.90
3132;BME280;62090;52.330;9.104;2023-05-19T10:40:56;101998.44;;;19.66;48.08
3132;BME280;62090;52.330;9.104;2023-05-19T10:43:38;101951.94;;;19.74;47.73
3132;BME280;62090;52.330;9.104;2023-05-19T10:46:15;101952.91;;;19.94;45.91
3132;BME280;62090;52.330;9.104;2023-05-19T10:48:48;101981.69;;;20.50;46.54
3132;BME280;62090;52.330;9.104;2023-05-19T10:51:18;101976.56;;;20.81;45.08
3132;BME280;62090;52.330;9.104;2023-05-19T10:53:48;101979.19;;;20.97;43.83
3132;BME280;62090;52.330;9.104;2023-05-19T10:56:32;101968.81;;;21.02;43.21
3132;BME280;62090;52.330;9.104;2023-05-19T10:59:02;101969.69;;;20.96;43.73
3132;BME280;62090;52.330;9.104;2023-05-19T11:01:33;101970.56;;;20.98;42.61
3132;BME280;62090;52.330;9.104;2023-05-19T11:04:06;101974.91;;;21.18;42.08
3132;BME280;62090;52.330;9.104;2023-05-19T11:06:38;101973.16;;;21.03;42.88
3132;BME280;62090;52.330;9.104;2023-05-19T11:09:11;101961.09;;;21.29;42.23
3132;BME280;62090;52.330;9.104;2023-05-19T11:11:46;101959.34;;;21.39;42.63
3132;BME280;62090;52.330;9.104;2023-05-19T11:14:17;101945.53;;;21.40;41.85
3132;BME280;62090;52.330;9.104;2023-05-19T11:16:50;101969.72;;;21.54;42.24
3132;BME280;62090;52.330;9.104;2023-05-19T11:19:25;101965.38;;;21.58;43.35
3132;BME280;62090;52.330;9.104;2023-05-19T11:21:57;101969.69;;;21.71;41.85
3132;BME280;62090;52.330;9.104;2023-05-19T11:24:37;101955.03;;;21.15;41.50
3132;BME280;62090;52.330;9.104;2023-05-19T11:27:24;101961.06;;;21.43;42.36
3132;BME280;62090;52.330;9.104;2023-05-19T11:29:55;101954.19;;;21.24;40.74
3132;BME280;62090;52.330;9.104;2023-05-19T11:32:27;101953.31;;;21.57;41.04
3132;BME280;62090;52.330;9.104;2023-05-19T11:34:58;101947.22;;;21.65;41.29
3132;BME280;62090;52.330;9.104;2023-05-19T11:37:31;101959.31;;;21.72;40.86
3132;BME280;62090;52.330;9.104;2023-05-19T11:40:02;101956.69;;;21.78;40.89
3132;BME280;62090;52.330;9.104;2023-05-19T11:42:35;101960.13;;;21.85;40.10
3132;BME280;62090;52.330;9.104;2023-05-19T11:45:07;101941.88;;;22.17;40.14
3132;BME280;62090;52.330;9.104;2023-05-19T11:47:37;101949.75;;;21.89;40.79
3132;BME280;62090;52.330;9.104;2023-05-19T11:50:27;101948.94;;;21.77;39.95
3132;BME280;62090;52.330;9.104;2023-05-19T11:52:59;101934.25;;;21.62;39.87
3132;BME280;62090;52.330;9.104;2023-05-19T11:55:30;101919.56;;;21.57;40.89
3132;BME280;62090;52.330;9.104;2023-05-19T11:58:03;101937.66;;;21.96;40.69
3132;BME280;62090;52.330;9.104;2023-05-19T12:00:34;101947.09;;;22.20;40.70
3132;BME280;62090;52.330;9.104;2023-05-19T12:03:07;101940.16;;;22.19;38.84
3132;BME280;62090;52.330;9.104;2023-05-19T12:05:39;101938.44;;;22.12;37.73
3132;BME280;62090;52.330;9.104;2023-05-19T12:08:10;101945.34;;;22.25;37.23
3132;BME280;62090;52.330;9.104;2023-05-19T12:10:40;101949.69;;;22.17;37.25
3132;BME280;62090;52.330;9.104;2023-05-19T12:13:13;101919.44;;;22.01;37.78
3132;BME280;62090;52.330;9.104;2023-05-19T12:15:43;101896.13;;;21.85;38.07
3132;BME280;62090;52.330;9.104;2023-05-19T12:18:13;101934.88;;;22.34;37.67
3132;BME280;62090;52.330;9.104;2023-05-19T12:20:43;101930.53;;;22.38;38.39
3132;BME280;62090;52.330;9.104;2023-05-19T12:23:13;101925.38;;;22.33;38.91
3132;BME280;62090;52.330;9.104;2023-05-19T12:25:43;101920.06;;;22.54;39.56
3132;BME280;62090;52.330;9.104;2023-05-19T12:28:15;101923.41;;;22.76;39.08
3132;BME280;62090;52.330;9.104;2023-05-19T12:30:47;101924.31;;;22.67;39.69
3132;BME280;62090;52.330;9.104;2023-05-19T12:33:18;101905.31;;;22.56;40.70
3132;BME280;62090;52.330;9.104;2023-05-19T12:35:48;101896.06;;;22.08;40.94
3132;BME280;62090;52.330;9.104;2023-05-19T12:38:18;101907.41;;;21.69;42.28
3132;BME280;62090;52.330;9.104;2023-05-19T12:40:49;101906.63;;;21.34;43.45
3132;BME280;62090;52.330;9.104;2023-05-19T12:43:22;101917.84;;;21.13;43.68
3132;BME280;62090;52.330;9.104;2023-05-19T12:45:52;101924.72;;;20.79;43.30
3132;BME280;62090;52.330;9.104;2023-05-19T12:48:22;101925.63;;;20.81;43.28
3132;BME280;62090;52.330;9.104;2023-05-19T12:50:52;101906.59;;;20.69;43.55
3132;BME280;62090;52.330;9.104;2023-05-19T12:53:25;101909.19;;;20.73;43.36
3132;BME280;62090;52.330;9.104;2023-05-19T12:55:55;101908.34;;;20.82;43.93
3132;BME280;62090;52.330;9.104;2023-05-19T12:58:27;101899.69;;;21.12;42.33
3132;BME280;62090;52.330;9.104;2023-05-19T13:00:57;101914.34;;;21.58;42.49
3132;BME280;62090;52.330;9.104;2023-05-19T13:03:28;101908.31;;;21.59;41.30
3132;BME280;62090;52.330;9.104;2023-05-19T13:05:58;101896.22;;;21.52;41.76
3132;BME280;62090;52.330;9.104;2023-05-19T13:08:28;101891.00;;;21.64;41.91
3132;BME280;62090;52.330;9.104;2023-05-19T13:10:57;101876.22;;;21.78;40.77
3132;BME280;62090;52.330;9.104;2023-05-19T13:13:31;101891.78;;;21.95;41.29
3132;BME280;62090;52.330;9.104;2023-05-19T13:16:01;101884.00;;;21.94;39.59
3132;BME280;62090;52.330;9.104;2023-05-19T13:18:31;101894.41;;;21.83;40.29
3132;BME280;62090;52.330;9.104;2023-05-19T13:21:04;101857.22;;;21.81;38.20
3132;BME280;62090;52.330;9.104;2023-05-19T13:23:34;101878.81;;;21.87;39.75
3132;BME280;62090;52.330;9.104;2023-05-19T13:26:03;101886.59;;;21.94;40.65
3132;BME280;62090;52.330;9.104;2023-05-19T13:28:36;101888.31;;;21.91;39.92